Terminal Aerodrome Forecast
Issued by NWS

Home | Current Version | Previous Version | Text Only | Print | Product List | Glossary On
Versions: 1 2 3 4 5 6 7 8 9 10 11 12 13 14
000
FTUS46 KSEW 231726
TAFBLI
TAF
KBLI 231726Z 2318/2418 17011KT P6SM FEW030 SCT050
      TEMPO 2318/2320 FEW030 BKN050
     FM232100 19008KT P6SM FEW050
     FM240300 VRB03KT P6SM SKC=

USA.gov is the U.S. government's official web portal to all federal, state and local government web resources and services.